Time;durP1;ratioP1;P1;durP2;ratioP2;P2;SDS_P1;SDS_P2;PMS_P1;PMS_P2;Temp;Humidity;BMP_temperature;BMP_pressure;BME280_temperature;BME280_humidity;BME280_pressure;Samples;Min_cycle;Max_cycle;Signal;HPM_P1;HPM_P2
2021/10/06 00:01:01;;;;;;;9.25;1.02;;;;;;;15.05;56.18;98767.25;5021927;28;20064;-70
2021/10/06 00:03:27;;;;;;;6.65;1.10;;;;;;;14.85;56.75;98765.66;5012626;28;20045;-71
2021/10/06 00:05:53;;;;;;;4.43;0.75;;;;;;;15.08;56.03;98780.19;5014823;28;20379;-70
2021/10/06 00:08:19;;;;;;;6.55;0.88;;;;;;;15.18;56.20;98771.91;5023899;28;20542;-70
2021/10/06 00:10:45;;;;;;;4.40;0.90;;;;;;;15.21;55.43;98779.44;5012149;28;20388;-71
2021/10/06 00:13:14;;;;;;;4.35;1.10;;;;;;;14.73;56.43;98779.63;5015199;28;20368;-71
2021/10/06 00:15:40;;;;;;;3.53;0.77;;;;;;;14.81;55.84;98795.22;5020322;28;20026;-70
2021/10/06 00:18:08;;;;;;;3.75;0.65;;;;;;;14.74;56.08;98798.31;5014653;28;20033;-70
2021/10/06 00:20:33;;;;;;;6.15;0.82;;;;;;;15.22;54.64;98801.94;5021810;28;20030;-70
2021/10/06 00:22:59;;;;;;;2.10;0.50;;;;;;;15.44;53.96;98812.16;5011342;28;20034;-70
2021/10/06 00:25:25;;;;;;;6.63;0.95;;;;;;;15.00;54.80;98802.53;5017002;28;20079;-72
2021/10/06 00:27:52;;;;;;;8.55;0.80;;;;;;;14.62;56.28;98814.97;5030054;28;20030;-71
2021/10/06 00:30:17;;;;;;;6.50;0.70;;;;;;;14.69;55.78;98802.97;5010938;28;20297;-71
2021/10/06 00:32:43;;;;;;;6.10;0.95;;;;;;;14.65;56.20;98808.19;5021820;28;20033;-71
2021/10/06 00:35:10;;;;;;;6.13;0.60;;;;;;;14.66;56.25;98831.47;5025681;28;20034;-72
2021/10/06 00:37:35;;;;;;;2.22;0.43;;;;;;;14.80;55.89;98817.22;5013048;28;20033;-71
2021/10/06 00:40:02;;;;;;;5.40;0.57;;;;;;;14.60;55.67;98833.44;5015489;28;20040;-71
2021/10/06 00:42:28;;;;;;;3.33;0.73;;;;;;;14.77;55.59;98837.56;5018096;28;20478;-71
2021/10/06 00:44:53;;;;;;;5.22;0.70;;;;;;;15.39;54.04;98857.53;5012214;28;20045;-72
2021/10/06 00:47:19;;;;;;;5.32;0.50;;;;;;;14.53;55.31;98845.75;5022374;28;20037;-71
2021/10/06 00:49:45;;;;;;;10.45;0.95;;;;;;;14.61;55.52;98870.28;5010395;28;20034;-70
2021/10/06 00:52:12;;;;;;;2.60;0.50;;;;;;;14.53;55.26;98853.88;5012609;28;20058;-71
2021/10/06 00:54:38;;;;;;;6.07;0.50;;;;;;;14.57;55.97;98860.31;5021596;28;20044;-71
2021/10/06 00:57:04;;;;;;;9.73;0.80;;;;;;;14.35;55.63;98876.00;5023092;28;20050;-70
2021/10/06 00:59:30;;;;;;;3.80;0.50;;;;;;;14.84;54.80;98877.88;5011209;28;20479;-70
2021/10/06 01:01:56;;;;;;;3.35;0.90;;;;;;;14.48;55.01;98885.34;5011399;28;20596;-71
2021/10/06 01:04:22;;;;;;;2.28;0.40;;;;;;;14.27;55.73;98881.28;5018774;28;20600;-71
2021/10/06 01:06:48;;;;;;;5.57;0.45;;;;;;;14.45;55.60;98902.19;5017264;28;20025;-71
2021/10/06 01:09:14;;;;;;;4.35;0.40;;;;;;;14.30;56.40;98900.44;5026585;28;20103;-71
2021/10/06 01:11:41;;;;;;;4.22;0.55;;;;;;;14.44;56.05;98910.59;5022362;28;20040;-70
2021/10/06 01:14:08;;;;;;;1.73;0.50;;;;;;;14.46;55.89;98913.81;5015614;28;20120;-70
2021/10/06 01:16:34;;;;;;;6.80;0.40;;;;;;;14.02;57.13;98926.44;5016351;28;20034;-70
2021/10/06 01:19:00;;;;;;;4.05;0.50;;;;;;;14.24;56.69;98931.38;5028114;28;20057;-70
2021/10/06 01:21:26;;;;;;;1.83;0.28;;;;;;;13.86;56.50;98934.72;5026197;28;20045;-70
2021/10/06 01:23:54;;;;;;;2.47;0.40;;;;;;;14.14;56.72;98943.16;5020897;28;20034;-70
2021/10/06 01:26:20;;;;;;;1.92;0.32;;;;;;;13.84;56.82;98946.94;5016133;28;20025;-70
2021/10/06 01:28:48;;;;;;;6.07;0.70;;;;;;;14.14;55.96;98955.88;5010800;28;20038;-71
2021/10/06 01:31:14;;;;;;;1.50;0.38;;;;;;;14.28;55.36;98950.59;5021747;28;20038;-71
2021/10/06 01:33:39;;;;;;;2.58;0.40;;;;;;;14.11;55.89;98957.22;5012006;28;20036;-70
2021/10/06 01:36:05;;;;;;;2.13;0.60;;;;;;;14.08;56.27;98962.41;5010876;28;20084;-70
2021/10/06 01:38:31;;;;;;;2.95;0.30;;;;;;;14.14;55.57;98964.81;5012146;28;20037;-70
2021/10/06 01:40:56;;;;;;;6.10;0.47;;;;;;;13.78;56.62;98953.47;5022346;28;20450;-71
2021/10/06 01:43:22;;;;;;;3.30;0.57;;;;;;;14.35;55.36;98962.69;5022051;28;20030;-71
2021/10/06 01:45:47;;;;;;;3.53;0.95;;;;;;;13.44;56.65;98982.94;5021280;28;20052;-71
2021/10/06 01:48:13;;;;;;;1.85;0.30;;;;;;;14.28;54.80;98972.28;5018096;28;20479;-70
2021/10/06 01:50:43;;;;;;;1.10;0.20;;;;;;;14.02;55.25;98969.78;5020359;28;20144;-71
2021/10/06 01:53:10;;;;;;;3.28;0.45;;;;;;;13.78;55.30;98962.38;5023110;28;20045;-70
2021/10/06 01:55:37;;;;;;;9.73;0.30;;;;;;;14.18;54.46;98986.69;5027782;28;20044;-70
2021/10/06 01:58:06;;;;;;;2.65;0.40;;;;;;;13.95;54.37;98990.94;5025987;28;20173;-71
2021/10/06 02:00:32;;;;;;;3.00;0.32;;;;;;;13.81;54.70;99002.44;5025253;28;20060;-72
2021/10/06 02:02:57;;;;;;;1.58;0.43;;;;;;;14.10;54.18;98987.31;5021914;28;20029;-72
2021/10/06 02:05:23;;;;;;;1.10;0.20;;;;;;;13.71;54.93;98995.19;5018458;28;20034;-72
2021/10/06 02:07:49;;;;;;;1.92;0.52;;;;;;;13.47;55.52;99000.50;5026283;28;20386;-72
2021/10/06 02:10:14;;;;;;;3.28;0.20;;;;;;;13.82;54.28;98985.09;5017649;28;20042;-71
2021/10/06 02:12:41;;;;;;;1.83;0.40;;;;;;;14.14;53.60;98993.78;5022518;28;20044;-70
2021/10/06 02:15:08;;;;;;;1.00;0.10;;;;;;;13.87;54.57;98995.09;5022325;28;20483;-70
2021/10/06 02:17:33;;;;;;;1.92;0.30;;;;;;;13.86;53.98;99002.38;5009612;28;20048;-70
2021/10/06 02:19:59;;;;;;;1.85;0.20;;;;;;;14.05;53.85;99017.94;5017941;28;20641;-70
2021/10/06 02:22:25;;;;;;;2.65;0.17;;;;;;;13.91;54.21;99015.09;5027028;28;20028;-71
2021/10/06 02:24:50;;;;;;;1.48;0.30;;;;;;;13.86;53.72;99015.91;5027296;28;20545;-70
2021/10/06 02:27:16;;;;;;;0.73;0.10;;;;;;;14.35;52.78;99022.28;5025759;28;20037;-70
2021/10/06 02:29:42;;;;;;;1.48;0.20;;;;;;;13.86;53.15;99015.91;5023341;28;20029;-70
2021/10/06 02:32:08;;;;;;;1.33;0.43;;;;;;;13.93;53.67;99023.72;5019143;28;20034;-70
2021/10/06 02:34:34;;;;;;;1.52;0.28;;;;;;;14.15;53.36;99027.88;5016115;28;20034;-71
2021/10/06 02:37:00;;;;;;;1.55;0.30;;;;;;;13.65;53.72;99019.84;5019532;28;20117;-72
2021/10/06 02:39:26;;;;;;;0.75;0.08;;;;;;;14.23;52.62;99023.78;5020208;28;20038;-71
2021/10/06 02:41:51;;;;;;;7.10;0.30;;;;;;;13.91;52.77;99020.50;5025524;28;20040;-70
2021/10/06 02:44:18;;;;;;;2.67;0.30;;;;;;;14.00;53.14;99021.50;5025036;28;20406;-71
2021/10/06 02:46:43;;;;;;;1.65;0.30;;;;;;;14.34;52.25;99028.78;5028065;28;20034;-71
2021/10/06 02:49:09;;;;;;;0.55;0.25;;;;;;;14.08;52.77;99040.94;5021132;28;20120;-71
2021/10/06 02:51:35;;;;;;;1.30;0.20;;;;;;;14.23;52.54;99029.19;5023643;28;20029;-70
2021/10/06 02:54:01;;;;;;;1.13;0.25;;;;;;;14.72;51.31;99039.03;5031254;28;20034;-70
2021/10/06 02:56:26;;;;;;;1.63;0.35;;;;;;;14.10;52.23;99044.97;5025983;28;20038;-70
2021/10/06 02:58:52;;;;;;;1.30;0.22;;;;;;;14.22;51.78;99057.38;5023889;28;20502;-71
2021/10/06 03:01:18;;;;;;;2.42;0.10;;;;;;;14.31;51.95;99051.03;5013954;28;20092;-71
2021/10/06 03:03:44;;;;;;;2.70;0.10;;;;;;;14.56;51.28;99048.38;5026407;28;20091;-71
2021/10/06 03:06:09;;;;;;;0.30;0.10;;;;;;;14.56;51.50;99053.81;5015802;28;20113;-71
2021/10/06 03:08:35;;;;;;;1.90;0.10;;;;;;;14.16;52.27;99049.28;5015112;28;20363;-71
2021/10/06 03:11:02;;;;;;;2.13;0.30;;;;;;;13.94;52.90;99057.00;5031321;28;20064;-72
2021/10/06 03:13:28;;;;;;;0.77;0.20;;;;;;;14.49;51.68;99056.84;5025659;28;20060;-71
2021/10/06 03:15:59;;;;;;;0.90;0.20;;;;;;;14.03;52.31;99061.56;5030110;28;20038;-72
2021/10/06 03:18:27;;;;;;;1.45;0.30;;;;;;;14.34;51.96;99077.56;5019701;28;20120;-71
2021/10/06 03:20:53;;;;;;;1.33;0.20;;;;;;;13.96;52.90;99076.47;5013221;28;20041;-71
2021/10/06 03:23:21;;;;;;;0.70;0.20;;;;;;;14.17;52.58;99088.81;5012909;28;20484;-71
2021/10/06 03:25:47;;;;;;;2.35;0.50;;;;;;;13.99;52.66;99087.56;5014743;28;20070;-71
2021/10/06 03:28:13;;;;;;;2.05;0.20;;;;;;;14.31;52.12;99099.00;5028667;28;20471;-71
2021/10/06 03:30:38;;;;;;;1.33;0.13;;;;;;;13.91;53.10;99101.72;5022718;28;20079;-71
2021/10/06 03:33:05;;;;;;;1.83;0.20;;;;;;;14.04;53.07;99103.78;5023660;28;20033;-72
2021/10/06 03:35:31;;;;;;;0.65;0.20;;;;;;;14.02;52.79;99107.84;5023310;28;20033;-71
2021/10/06 03:37:57;;;;;;;0.20;0.10;;;;;;;14.12;52.30;99110.50;5009861;28;20506;-71
2021/10/06 03:40:24;;;;;;;1.27;0.17;;;;;;;13.90;52.94;99124.44;5021308;28;20032;-71
2021/10/06 03:42:51;;;;;;;1.95;0.20;;;;;;;14.04;52.73;99127.34;5026422;28;20218;-72
2021/10/06 03:45:17;;;;;;;3.25;0.32;;;;;;;14.26;52.09;99123.41;5024244;28;20143;-70
2021/10/06 03:47:43;;;;;;;1.98;0.10;;;;;;;13.81;53.43;99137.75;5016908;28;20109;-72
2021/10/06 03:50:11;;;;;;;1.33;0.28;;;;;;;13.93;53.15;99137.44;5023900;28;20171;-72
2021/10/06 03:52:37;;;;;;;2.75;0.20;;;;;;;13.91;53.02;99153.94;5017859;28;20046;-72
2021/10/06 03:55:03;;;;;;;1.15;0.20;;;;;;;13.87;52.99;99157.50;5014058;28;20396;-72
2021/10/06 03:57:29;;;;;;;3.15;0.38;;;;;;;13.91;52.84;99162.06;5012900;28;20065;-72
2021/10/06 03:59:54;;;;;;;0.80;0.17;;;;;;;13.73;53.78;99166.22;5011320;28;20044;-72
2021/10/06 04:02:20;;;;;;;0.63;0.10;;;;;;;14.24;52.02;99182.47;5030836;28;20029;-71
2021/10/06 04:04:46;;;;;;;3.20;0.65;;;;;;;13.79;53.10;99175.13;5018893;28;20118;-72
2021/10/06 04:07:11;;;;;;;0.63;0.20;;;;;;;14.03;52.99;99183.41;5023519;28;20053;-71
2021/10/06 04:09:37;;;;;;;2.22;0.30;;;;;;;13.74;53.69;99194.06;5022797;28;20495;-71
2021/10/06 04:12:02;;;;;;;0.73;0.20;;;;;;;13.74;53.92;99192.19;5016613;28;20050;-70
2021/10/06 04:14:30;;;;;;;2.17;0.30;;;;;;;13.97;52.77;99198.03;5029387;28;20387;-70
2021/10/06 04:16:56;;;;;;;0.63;0.20;;;;;;;13.94;52.83;99197.78;5030694;28;20036;-70
2021/10/06 04:19:21;;;;;;;2.38;0.40;;;;;;;13.52;53.44;99199.84;5024743;28;20030;-72
2021/10/06 04:21:47;;;;;;;2.70;0.30;;;;;;;14.06;52.52;99214.50;5020213;28;20558;-72
2021/10/06 04:24:12;;;;;;;13.10;0.65;;;;;;;13.71;53.41;99205.47;5011818;28;20444;-71
2021/10/06 04:26:38;;;;;;;2.17;0.35;;;;;;;14.09;52.73;99207.75;5021899;28;20037;-71
2021/10/06 04:29:03;;;;;;;4.53;0.50;;;;;;;14.04;52.16;99219.38;5013341;28;20503;-72
2021/10/06 04:31:29;;;;;;;1.67;0.20;;;;;;;14.15;51.74;99226.41;5018561;28;20528;-72
2021/10/06 04:33:55;;;;;;;1.90;0.30;;;;;;;13.59;53.45;99232.84;5018578;28;20046;-72
2021/10/06 04:36:21;;;;;;;1.08;0.20;;;;;;;13.73;52.64;99227.63;5021867;28;20065;-72
2021/10/06 04:38:46;;;;;;;1.05;0.28;;;;;;;13.88;52.52;99235.69;5023980;28;20045;-72
2021/10/06 04:41:12;;;;;;;2.83;0.20;;;;;;;13.87;52.71;99244.13;5027790;28;20041;-72
2021/10/06 04:43:37;;;;;;;2.17;0.30;;;;;;;13.90;52.57;99247.06;5030230;28;20539;-72
2021/10/06 04:46:03;;;;;;;3.33;0.40;;;;;;;13.86;53.07;99248.69;5015435;28;20549;-71
2021/10/06 04:48:29;;;;;;;0.93;0.17;;;;;;;13.60;53.61;99253.41;5017030;28;20060;-72
2021/10/06 04:50:55;;;;;;;0.95;0.20;;;;;;;13.73;53.20;99260.13;5029429;28;20064;-72
2021/10/06 04:53:20;;;;;;;1.55;0.30;;;;;;;13.45;53.69;99251.53;5014547;28;20406;-72
2021/10/06 04:55:48;;;;;;;3.83;0.30;;;;;;;13.80;52.85;99252.50;5029224;28;20033;-71
2021/10/06 04:58:14;;;;;;;1.00;0.20;;;;;;;13.42;53.62;99260.19;5026610;28;20495;-71
2021/10/06 05:00:40;;;;;;;2.55;0.17;;;;;;;14.16;51.54;99274.06;5027261;28;20029;-71
2021/10/06 05:03:07;;;;;;;1.25;0.15;;;;;;;14.07;51.58;99274.91;5024136;28;20467;-72
2021/10/06 05:05:33;;;;;;;1.30;0.30;;;;;;;14.00;51.67;99276.00;5027892;28;20036;-71
2021/10/06 05:07:59;;;;;;;4.32;0.38;;;;;;;14.25;51.05;99287.03;5027793;28;20048;-71
2021/10/06 05:10:25;;;;;;;1.80;0.40;;;;;;;14.04;51.74;99274.38;5025776;28;20037;-71
2021/10/06 05:12:51;;;;;;;1.23;0.15;;;;;;;13.93;52.17;99288.19;5019510;28;20045;-70
2021/10/06 05:15:16;;;;;;;1.08;0.50;;;;;;;14.23;51.01;99284.56;5023655;28;20048;-70
2021/10/06 05:17:42;;;;;;;1.13;0.20;;;;;;;13.66;52.55;99290.19;5015136;28;20036;-72
2021/10/06 05:20:07;;;;;;;1.10;0.28;;;;;;;13.38;53.28;99300.50;5022638;28;20033;-72
2021/10/06 05:22:33;;;;;;;4.88;0.38;;;;;;;13.75;52.58;99298.53;5022281;28;20380;-71
2021/10/06 05:24:59;;;;;;;2.28;0.13;;;;;;;14.13;51.41;99311.69;5010743;28;20105;-72
2021/10/06 05:27:25;;;;;;;3.38;0.57;;;;;;;14.07;51.51;99308.19;5021591;28;20156;-68
2021/10/06 05:29:51;;;;;;;1.38;0.30;;;;;;;13.91;51.99;99310.16;5029477;28;20663;-64
2021/10/06 05:32:17;;;;;;;5.65;0.55;;;;;;;13.79;52.18;99328.59;5023914;28;20052;-67
2021/10/06 05:34:43;;;;;;;2.13;0.22;;;;;;;14.00;51.61;99326.63;5022596;28;20064;-67
2021/10/06 05:37:09;;;;;;;0.60;0.20;;;;;;;14.15;51.47;99331.19;5024565;28;20479;-67
2021/10/06 05:39:34;;;;;;;1.45;0.20;;;;;;;13.66;52.28;99354.31;5021024;28;20037;-65
2021/10/06 05:42:00;;;;;;;2.30;0.40;;;;;;;14.39;50.58;99342.22;5020841;28;20447;-65
2021/10/06 05:44:26;;;;;;;5.18;0.32;;;;;;;14.23;51.30;99351.50;5024406;28;20057;-65
2021/10/06 05:46:51;;;;;;;2.10;0.50;;;;;;;13.79;51.99;99350.25;5026327;28;20431;-67
2021/10/06 05:49:17;;;;;;;1.42;0.22;;;;;;;13.99;51.83;99352.06;5027898;28;20037;-70
2021/10/06 05:51:42;;;;;;;1.70;0.20;;;;;;;13.97;52.02;99362.38;5026301;28;20445;-66
2021/10/06 05:54:08;;;;;;;1.02;0.30;;;;;;;13.79;52.40;99363.78;5022122;28;20033;-69
2021/10/06 05:56:34;;;;;;;1.27;0.40;;;;;;;14.21;51.60;99381.53;5008252;28;20642;-66
2021/10/06 05:58:59;;;;;;;1.85;0.40;;;;;;;13.53;52.75;99382.75;5020583;28;20127;-66
2021/10/06 06:01:26;;;;;;;1.38;0.20;;;;;;;14.18;51.68;99376.69;5023261;28;20053;-68
2021/10/06 06:03:53;;;;;;;1.83;0.40;;;;;;;14.31;51.09;99380.72;5023550;28;20115;-67
2021/10/06 06:06:19;;;;;;;0.75;0.28;;;;;;;13.85;52.04;99390.53;5024654;28;20038;-67
2021/10/06 06:08:44;;;;;;;2.90;1.08;;;;;;;13.97;51.39;99394.88;5021286;28;20499;-67
2021/10/06 06:11:10;;;;;;;0.32;0.20;;;;;;;14.25;51.31;99400.78;5022437;28;20037;-68
2021/10/06 06:13:36;;;;;;;2.70;0.50;;;;;;;14.24;51.30;99420.81;5026385;28;20030;-68
2021/10/06 06:16:03;;;;;;;2.30;0.47;;;;;;;14.43;50.64;99424.56;5028386;28;20038;-68
2021/10/06 06:18:28;;;;;;;1.42;0.20;;;;;;;13.93;51.51;99427.09;5010643;28;20041;-71
2021/10/06 06:20:54;;;;;;;3.88;0.40;;;;;;;14.22;51.69;99431.13;5016985;28;20036;-72
2021/10/06 06:23:21;;;;;;;2.10;0.30;;;;;;;14.15;51.91;99426.81;5012456;28;20105;-67
2021/10/06 06:25:47;;;;;;;2.85;0.47;;;;;;;13.84;52.30;99434.94;5009861;28;20456;-67
2021/10/06 06:28:13;;;;;;;2.88;0.28;;;;;;;14.09;51.63;99441.41;5011661;28;20034;-67
2021/10/06 06:30:41;;;;;;;1.90;0.60;;;;;;;13.69;52.67;99445.78;5009865;28;20061;-67
2021/10/06 06:33:07;;;;;;;3.83;0.43;;;;;;;14.11;50.99;99449.28;5008959;28;20046;-67
2021/10/06 06:35:32;;;;;;;1.40;0.20;;;;;;;13.84;52.07;99466.63;5009267;28;20041;-71
2021/10/06 06:37:58;;;;;;;1.55;0.30;;;;;;;14.26;51.19;99472.81;5019170;28;20434;-66
2021/10/06 06:40:25;;;;;;;2.33;0.20;;;;;;;14.56;50.84;99466.50;5013072;28;20100;-67
2021/10/06 06:42:50;;;;;;;1.00;0.20;;;;;;;14.41;50.74;99464.66;5018002;28;20120;-66
2021/10/06 06:45:17;;;;;;;1.27;0.30;;;;;;;14.49;50.88;99474.13;5021964;28;20167;-66
2021/10/06 06:47:42;;;;;;;1.35;0.22;;;;;;;14.37;50.95;99476.31;5017607;28;20038;-66
2021/10/06 06:50:12;;;;;;;0.95;0.28;;;;;;;13.75;52.33;99480.72;5019695;28;20045;-68
2021/10/06 06:52:38;;;;;;;1.15;0.20;;;;;;;14.01;52.47;99486.13;5012371;28;20046;-67
2021/10/06 06:55:04;;;;;;;1.85;0.22;;;;;;;13.94;52.21;99509.13;5012316;28;20066;-66
2021/10/06 06:57:30;;;;;;;1.35;0.30;;;;;;;14.00;52.36;99498.03;5021532;28;20114;-67
2021/10/06 06:59:55;;;;;;;1.00;0.30;;;;;;;14.16;52.18;99503.44;5014545;28;20117;-67
2021/10/06 07:02:22;;;;;;;1.08;0.20;;;;;;;14.25;51.58;99509.91;5015930;28;20125;-66
2021/10/06 07:04:48;;;;;;;1.08;0.32;;;;;;;14.23;51.46;99511.28;5018914;28;20049;-67
2021/10/06 07:07:14;;;;;;;0.75;0.30;;;;;;;14.20;51.80;99509.94;5020339;28;20423;-67
2021/10/06 07:09:50;;;;;;;1.60;0.22;;;;;;;14.33;51.35;99519.41;5012820;28;20034;-69
2021/10/06 07:12:18;;;;;;;1.30;0.20;;;;;;;13.82;52.75;99523.72;5014338;28;20033;-67
2021/10/06 07:14:44;;;;;;;2.72;0.28;;;;;;;14.31;51.45;99527.00;5016002;28;20053;-66
2021/10/06 07:17:11;;;;;;;1.33;0.20;;;;;;;14.64;50.76;99532.91;5007613;28;20048;-67
2021/10/06 07:19:37;;;;;;;1.55;0.30;;;;;;;14.61;50.71;99536.94;5023833;28;20029;-66
2021/10/06 07:22:04;;;;;;;1.75;0.40;;;;;;;14.22;51.89;99532.13;5020045;28;20508;-66
2021/10/06 07:24:30;;;;;;;4.70;0.10;;;;;;;14.41;51.79;99529.69;5013285;28;20116;-66
2021/10/06 07:26:56;;;;;;;0.93;0.20;;;;;;;14.44;51.67;99531.84;5011946;28;20511;-67
2021/10/06 07:29:21;;;;;;;1.08;0.15;;;;;;;14.08;52.50;99539.19;5030736;28;20077;-67
2021/10/06 07:31:47;;;;;;;1.27;0.20;;;;;;;14.33;52.25;99550.00;5014580;28;20045;-74
2021/10/06 07:34:13;;;;;;;8.30;1.02;;;;;;;14.25;51.93;99542.44;5004606;28;20053;-75
2021/10/06 07:36:39;;;;;;;6.53;0.73;;;;;;;14.50;51.92;99548.91;5017760;28;20068;-75
2021/10/06 07:39:06;;;;;;;2.30;0.30;;;;;;;14.14;53.04;99557.06;5023992;28;20483;-74
2021/10/06 07:41:32;;;;;;;0.95;0.30;;;;;;;14.53;51.90;99558.41;5028136;28;20064;-74
2021/10/06 07:43:58;;;;;;;2.13;0.32;;;;;;;14.52;51.92;99567.63;5005044;28;20036;-74
2021/10/06 07:46:23;;;;;;;1.58;0.50;;;;;;;14.20;53.00;99570.34;5014107;28;20033;-74
2021/10/06 07:48:50;;;;;;;4.13;0.30;;;;;;;14.48;52.35;99579.00;5013735;28;20471;-74
2021/10/06 07:51:16;;;;;;;3.40;0.43;;;;;;;14.13;53.43;99572.47;5019199;28;20439;-75
2021/10/06 07:53:41;;;;;;;0.93;0.30;;;;;;;14.44;52.74;99594.19;5001603;28;20698;-74
2021/10/06 07:56:08;;;;;;;2.47;0.40;;;;;;;14.48;52.38;99597.97;5017461;28;20112;-73
2021/10/06 07:58:34;;;;;;;1.75;0.57;;;;;;;14.77;51.69;99596.59;5016263;28;20125;-76
2021/10/06 08:01:00;;;;;;;0.90;0.30;;;;;;;15.01;51.29;99598.69;5016294;28;20030;-70
2021/10/06 08:03:26;;;;;;;2.53;0.30;;;;;;;14.83;51.91;99600.91;5017189;28;20029;-68
2021/10/06 08:05:52;;;;;;;1.63;0.40;;;;;;;15.14;51.01;99605.44;5026634;28;20036;-65
2021/10/06 08:08:17;;;;;;;2.67;0.40;;;;;;;14.59;52.06;99606.88;5026426;28;20077;-66
2021/10/06 08:10:43;;;;;;;0.38;0.20;;;;;;;15.19;50.34;99614.41;5022856;28;20398;-66
2021/10/06 08:13:09;;;;;;;1.75;0.30;;;;;;;14.95;51.27;99625.03;5000107;28;20091;-65
2021/10/06 08:15:36;;;;;;;0.60;0.40;;;;;;;15.61;50.06;99628.59;5015894;28;20034;-66
2021/10/06 08:18:02;;;;;;;0.63;0.20;;;;;;;15.16;50.47;99623.09;5014036;28;20052;-65
2021/10/06 08:20:33;;;;;;;2.22;0.47;;;;;;;15.52;50.03;99624.84;5013857;28;20036;-65
2021/10/06 08:23:07;;;;;;;2.13;0.60;;;;;;;15.76;49.85;99618.75;5016574;28;20083;-65
2021/10/06 08:25:32;;;;;;;3.83;0.40;;;;;;;15.48;50.54;99640.06;5026630;28;20033;-66
2021/10/06 08:27:58;;;;;;;1.92;0.22;;;;;;;15.60;49.96;99639.75;5008543;28;20046;-66
2021/10/06 08:30:25;;;;;;;5.00;0.47;;;;;;;15.57;50.60;99641.09;5015689;28;20048;-65
2021/10/06 08:32:50;;;;;;;3.30;0.40;;;;;;;15.48;50.32;99648.19;5014935;28;20059;-66
2021/10/06 08:35:16;;;;;;;0.98;0.30;;;;;;;15.63;50.17;99650.84;5038380;28;20478;-67
2021/10/06 08:37:42;;;;;;;1.00;0.40;;;;;;;16.01;49.36;99649.63;5018596;28;20026;-66
2021/10/06 08:40:09;;;;;;;6.60;0.60;;;;;;;15.41;50.78;99662.06;5034752;28;20088;-66
2021/10/06 08:42:35;;;;;;;2.55;0.43;;;;;;;16.15;49.33;99660.66;5026896;28;20536;-66
2021/10/06 08:45:07;;;;;;;5.82;0.30;;;;;;;15.62;50.66;99670.13;5020901;28;20463;-66
2021/10/06 08:47:39;;;;;;;2.03;0.43;;;;;;;15.45;50.66;99673.19;4997555;28;20048;-66
2021/10/06 08:50:08;;;;;;;1.15;0.55;;;;;;;16.34;48.85;99677.91;5014100;28;20026;-66
2021/10/06 08:52:33;;;;;;;1.90;0.47;;;;;;;16.57;48.14;99677.47;5023702;28;20128;-67
2021/10/06 08:55:02;;;;;;;2.65;0.50;;;;;;;16.41;48.75;99677.59;5016470;28;20120;-65
2021/10/06 08:57:27;;;;;;;2.58;0.57;;;;;;;16.63;48.13;99679.88;4998760;28;20108;-66
2021/10/06 08:59:53;;;;;;;3.28;0.60;;;;;;;16.31;48.44;99694.78;5025383;28;20624;-67
2021/10/06 09:02:19;;;;;;;1.42;0.38;;;;;;;16.93;47.85;99683.44;5023273;28;20033;-68
2021/10/06 09:04:48;;;;;;;0.90;0.40;;;;;;;17.10;47.18;99683.00;5016427;28;20030;-67
2021/10/06 09:07:14;;;;;;;4.00;0.50;;;;;;;16.85;47.62;99694.94;5010071;28;20037;-67
2021/10/06 09:09:41;;;;;;;1.48;0.30;;;;;;;16.56;48.50;99698.41;5013456;28;20053;-67
2021/10/06 09:12:16;;;;;;;0.40;0.28;;;;;;;17.22;46.68;99703.56;5012189;28;20034;-66
2021/10/06 09:14:47;;;;;;;1.58;0.50;;;;;;;17.17;47.00;99706.34;5011704;28;20115;-66
2021/10/06 09:17:15;;;;;;;2.45;0.35;;;;;;;17.27;46.98;99703.53;5011370;28;20030;-68
2021/10/06 09:19:41;;;;;;;1.50;0.38;;;;;;;17.31;46.42;99710.00;5020493;28;20061;-67
2021/10/06 09:22:22;;;;;;;0.22;0.22;;;;;;;17.81;45.61;99700.75;5010855;28;20402;-67
2021/10/06 09:24:53;;;;;;;2.42;0.30;;;;;;;16.86;47.58;99714.78;5009730;28;20056;-65
2021/10/06 09:27:21;;;;;;;2.13;0.30;;;;;;;17.18;47.37;99725.13;5013445;28;20056;-66
2021/10/06 09:29:55;;;;;;;4.05;0.30;;;;;;;17.26;46.72;99732.66;5009533;28;20077;-66
2021/10/06 09:32:34;;;;;;;1.60;0.20;;;;;;;17.66;46.50;99745.31;5011072;28;20042;-66
2021/10/06 09:35:18;;;;;;;6.10;0.30;;;;;;;17.88;46.31;99742.06;5016549;28;20038;-66
2021/10/06 09:37:55;;;;;;;1.05;0.40;;;;;;;17.10;47.26;99744.78;5009888;28;20042;-66
2021/10/06 09:40:24;;;;;;;0.90;0.30;;;;;;;17.69;46.26;99750.19;5012674;28;20429;-66
2021/10/06 09:42:52;;;;;;;1.55;0.30;;;;;;;17.72;45.75;99740.63;5016215;28;20475;-66
2021/10/06 09:45:23;;;;;;;2.38;0.50;;;;;;;17.40;45.85;99721.88;5010261;28;20026;-67
2021/10/06 09:48:11;;;;;;;2.22;0.47;;;;;;;17.24;45.90;99748.47;5011260;28;20069;-66
2021/10/06 09:50:42;;;;;;;0.43;0.30;;;;;;;17.45;46.08;99755.59;5011908;28;20041;-65
2021/10/06 09:53:12;;;;;;;5.50;0.30;;;;;;;17.09;46.16;99757.56;5010803;28;20137;-65
2021/10/06 09:55:39;;;;;;;1.17;0.35;;;;;;;17.05;46.32;99759.25;5019444;28;20124;-67
2021/10/06 09:58:06;;;;;;;3.83;0.30;;;;;;;17.73;45.47;99772.22;5013616;28;20045;-67
2021/10/06 10:00:31;;;;;;;3.58;0.77;;;;;;;18.03;44.42;99765.59;5011051;28;20037;-67
2021/10/06 10:02:58;;;;;;;0.55;0.20;;;;;;;17.54;45.12;99781.94;5022040;28;20045;-67
2021/10/06 10:05:23;;;;;;;2.38;0.30;;;;;;;17.92;44.03;99783.16;5011503;28;20029;-68
2021/10/06 10:07:51;;;;;;;1.80;0.20;;;;;;;18.36;43.84;99784.00;5011505;28;20099;-67
2021/10/06 10:10:18;;;;;;;1.63;0.25;;;;;;;17.47;45.13;99786.06;5019153;28;20192;-67
2021/10/06 10:12:44;;;;;;;1.13;0.20;;;;;;;17.59;45.59;99797.38;5014618;28;20105;-67
2021/10/06 10:15:11;;;;;;;0.85;0.22;;;;;;;18.24;43.70;99796.16;5014323;28;20041;-69
2021/10/06 10:17:37;;;;;;;0.57;0.40;;;;;;;17.57;44.16;99802.31;5023672;28;20040;-67
2021/10/06 10:20:12;;;;;;;2.38;0.30;;;;;;;17.59;44.69;99800.09;5015425;28;20164;-66
2021/10/06 10:22:48;;;;;;;2.28;0.40;;;;;;;18.22;42.49;99803.81;5021474;28;20672;-67
2021/10/06 10:25:29;;;;;;;1.05;0.38;;;;;;;17.75;43.84;99794.53;5014780;28;20022;-67
2021/10/06 10:28:07;;;;;;;0.40;0.22;;;;;;;17.47;42.95;99796.97;5014822;28;20049;-67
2021/10/06 10:30:35;;;;;;;1.08;0.20;;;;;;;18.29;42.32;99797.97;5016865;28;20026;-67
2021/10/06 10:33:01;;;;;;;0.90;0.30;;;;;;;18.08;43.99;99808.34;5015589;28;20030;-68
2021/10/06 10:35:31;;;;;;;1.83;0.40;;;;;;;17.58;44.56;99805.84;5014023;28;20068;-67
2021/10/06 10:37:59;;;;;;;2.75;0.60;;;;;;;18.01;44.35;99807.88;5014305;28;20086;-67
2021/10/06 10:40:34;;;;;;;6.82;0.45;;;;;;;18.53;43.31;99806.13;5012698;28;20046;-67
2021/10/06 10:43:11;;;;;;;1.35;0.40;;;;;;;18.67;43.17;99817.13;5016894;28;20040;-67
2021/10/06 10:45:43;;;;;;;2.42;0.45;;;;;;;18.65;42.94;99819.31;5021069;28;20121;-66
2021/10/06 10:48:14;;;;;;;1.02;0.40;;;;;;;18.50;42.94;99823.06;5012004;28;20483;-66
2021/10/06 10:50:42;;;;;;;1.05;0.25;;;;;;;18.48;41.88;99830.72;5018396;28;20032;-67
2021/10/06 10:53:10;;;;;;;0.80;0.20;;;;;;;18.97;41.74;99831.44;5015101;28;20056;-64
2021/10/06 10:55:54;;;;;;;2.60;0.40;;;;;;;18.21;42.41;99836.78;5017951;28;20037;-66
2021/10/06 10:58:33;;;;;;;3.42;0.50;;;;;;;18.16;42.04;99836.84;5015049;28;20053;-66
2021/10/06 11:01:00;;;;;;;1.27;0.32;;;;;;;18.67;41.46;99843.56;5015514;28;20033;-66
2021/10/06 11:03:27;;;;;;;1.98;0.50;;;;;;;17.96;42.18;99847.69;5011867;28;20395;-66
2021/10/06 11:05:53;;;;;;;0.82;0.38;;;;;;;18.27;42.07;99846.53;5011945;28;20044;-66
2021/10/06 11:08:27;;;;;;;1.20;0.30;;;;;;;18.52;41.58;99856.31;5016195;28;20038;-66
2021/10/06 11:11:12;;;;;;;1.90;0.50;;;;;;;18.85;41.96;99853.66;5011839;28;20029;-66
2021/10/06 11:13:43;;;;;;;2.70;0.30;;;;;;;18.64;42.96;99863.25;5013590;28;20107;-65
2021/10/06 11:16:09;;;;;;;1.40;0.50;;;;;;;18.81;42.18;99860.03;5016641;28;20121;-65
2021/10/06 11:18:54;;;;;;;3.45;0.40;;;;;;;18.83;42.99;99866.78;5013100;28;20152;-66
2021/10/06 11:21:40;;;;;;;12.02;0.63;;;;;;;19.21;41.81;99876.91;5010448;28;20928;-64
2021/10/06 11:24:22;;;;;;;1.63;0.38;;;;;;;18.61;42.10;99872.84;5014709;28;20500;-65
2021/10/06 11:26:57;;;;;;;1.90;0.30;;;;;;;19.29;41.61;99873.50;5012968;28;20041;-64
2021/10/06 11:29:23;;;;;;;7.32;0.47;;;;;;;19.42;40.41;99868.38;5011236;28;20598;-64
2021/10/06 11:31:49;;;;;;;1.80;0.30;;;;;;;18.90;39.89;99871.91;5017365;28;20045;-64
2021/10/06 11:34:16;;;;;;;1.20;0.35;;;;;;;19.79;40.53;99882.25;5028014;28;20061;-64